createdAt,value
2018-03-28T00:02:08.351Z,84.10
2018-03-28T00:04:36.456Z,84.13
2018-03-28T00:07:04.842Z,84.12
2018-03-28T00:09:32.986Z,84.12
2018-03-28T00:12:01.097Z,84.19
2018-03-28T00:14:29.255Z,84.25
2018-03-28T00:16:57.373Z,84.21
2018-03-28T00:19:25.523Z,84.14
2018-03-28T00:21:53.955Z,84.25
2018-03-28T00:24:22.237Z,84.12
2018-03-28T00:26:50.375Z,84.27
2018-03-28T00:29:18.841Z,84.25
2018-03-28T00:31:47.291Z,84.26
2018-03-28T00:34:16.004Z,84.48
2018-03-28T00:36:44.169Z,84.64
2018-03-28T00:39:12.285Z,84.59
2018-03-28T00:41:40.383Z,84.56
2018-03-28T00:44:08.524Z,84.57
2018-03-28T00:46:37.523Z,84.60
2018-03-28T00:49:05.617Z,84.81
2018-03-28T00:51:37.597Z,84.74
2018-03-28T00:54:05.707Z,84.68
2018-03-28T00:56:38.795Z,84.66
2018-03-28T00:59:06.895Z,84.76
2018-03-28T01:01:35.026Z,84.84
2018-03-28T01:04:03.179Z,84.86
2018-03-28T01:06:31.299Z,84.91
2018-03-28T01:08:59.523Z,84.81
2018-03-28T01:11:27.665Z,84.79
2018-03-28T01:13:55.763Z,84.79
2018-03-28T01:16:23.875Z,84.89
2018-03-28T01:18:52.011Z,84.82
2018-03-28T01:21:20.119Z,84.85
2018-03-28T01:23:48.241Z,84.81
2018-03-28T01:26:16.343Z,84.83
2018-03-28T01:28:44.441Z,84.80
2018-03-28T01:31:12.565Z,84.81
2018-03-28T01:33:40.700Z,84.81
2018-03-28T01:36:08.823Z,84.76
2018-03-28T01:38:36.933Z,84.74
2018-03-28T01:41:05.045Z,84.68
2018-03-28T01:43:33.165Z,84.60
2018-03-28T01:46:01.284Z,84.74
2018-03-28T01:48:30.487Z,84.76
2018-03-28T01:50:59.433Z,84.72
2018-03-28T01:53:27.547Z,84.59
2018-03-28T01:55:55.675Z,84.54
2018-03-28T01:58:25.331Z,84.57
2018-03-28T02:00:53.494Z,84.56
2018-03-28T02:03:21.601Z,84.51
2018-03-28T02:05:49.703Z,84.47
2018-03-28T02:08:17.799Z,84.56
2018-03-28T02:10:45.968Z,84.75
2018-03-28T02:13:14.101Z,85.01
2018-03-28T02:15:42.213Z,85.14
2018-03-28T02:18:10.375Z,85.19
2018-03-28T02:20:38.991Z,85.16
2018-03-28T02:23:07.107Z,85.14
2018-03-28T02:25:35.235Z,85.14
2018-03-28T02:28:03.353Z,85.11
2018-03-28T02:30:31.464Z,85.12
2018-03-28T02:32:59.617Z,84.90
2018-03-28T02:35:27.724Z,84.81
2018-03-28T02:37:55.822Z,84.78
2018-03-28T02:40:23.985Z,84.60
2018-03-28T02:42:52.094Z,84.26
2018-03-28T02:45:20.275Z,84.13
2018-03-28T02:47:48.380Z,83.94
2018-03-28T02:50:16.512Z,83.72
2018-03-28T02:52:44.622Z,83.40
2018-03-28T02:55:12.782Z,83.13
2018-03-28T02:57:40.922Z,82.91
2018-03-28T03:00:08.970Z,82.76
2018-03-28T03:02:38.215Z,82.72
2018-03-28T03:05:07.501Z,82.64
2018-03-28T03:07:35.602Z,82.48
2018-03-28T03:10:03.846Z,82.45
2018-03-28T03:12:31.949Z,82.40
2018-03-28T03:15:00.934Z,82.01
2018-03-28T03:17:29.059Z,81.74
2018-03-28T03:19:57.157Z,81.55
2018-03-28T03:22:25.547Z,81.40
2018-03-28T03:24:53.683Z,81.26
2018-03-28T03:27:21.834Z,81.01
2018-03-28T03:29:49.932Z,80.79
2018-03-28T03:32:18.260Z,80.73
2018-03-28T03:34:46.349Z,80.49
2018-03-28T03:37:14.494Z,80.28
2018-03-28T03:39:42.912Z,79.87
2018-03-28T03:42:11.078Z,79.61
2018-03-28T03:44:39.162Z,79.40
2018-03-28T03:47:07.281Z,79.21
2018-03-28T03:49:35.381Z,79.01
2018-03-28T03:52:04.624Z,78.75
2018-03-28T03:54:32.756Z,78.74
2018-03-28T03:57:01.192Z,78.39
2018-03-28T03:59:29.287Z,78.27
2018-03-28T04:01:57.410Z,78.18
2018-03-28T04:04:25.557Z,78.12
2018-03-28T04:06:53.635Z,77.79
2018-03-28T04:09:22.075Z,77.56
2018-03-28T04:11:50.176Z,77.66
2018-03-28T04:14:18.263Z,77.45
2018-03-28T04:16:48.197Z,77.52
2018-03-28T04:19:16.331Z,77.45
2018-03-28T04:21:44.434Z,77.83
2018-03-28T04:24:12.538Z,77.42
2018-03-28T04:26:40.854Z,77.41
2018-03-28T04:29:08.960Z,77.48
2018-03-28T04:31:37.068Z,77.44
2018-03-28T04:34:05.174Z,77.45
2018-03-28T04:36:33.578Z,77.71
2018-03-28T04:39:01.682Z,77.87
2018-03-28T04:41:29.840Z,77.73
2018-03-28T04:43:58.536Z,77.87
2018-03-28T04:46:26.671Z,77.80
2018-03-28T04:48:54.769Z,77.84
2018-03-28T04:51:22.892Z,77.61
2018-03-28T04:53:51.330Z,77.65
2018-03-28T04:56:19.441Z,77.38
2018-03-28T04:58:47.544Z,77.08
2018-03-28T05:01:15.659Z,77.03
2018-03-28T05:03:43.793Z,76.96
2018-03-28T05:06:11.896Z,76.67
2018-03-28T05:08:40.163Z,76.61
2018-03-28T05:11:08.284Z,76.56
2018-03-28T05:13:36.389Z,76.54
2018-03-28T05:16:04.489Z,76.54
2018-03-28T05:18:32.614Z,76.67
2018-03-28T05:21:00.730Z,76.83
2018-03-28T05:23:28.831Z,76.59
2018-03-28T05:25:56.975Z,76.45
2018-03-28T05:28:25.541Z,76.38
2018-03-28T05:30:54.229Z,76.75
2018-03-28T05:33:22.345Z,76.53
2018-03-28T05:35:50.452Z,76.73
2018-03-28T05:38:18.552Z,76.70
2018-03-28T05:40:46.706Z,76.68
2018-03-28T05:43:14.856Z,76.49
2018-03-28T05:45:42.911Z,76.33
2018-03-28T05:48:11.070Z,76.42
2018-03-28T05:50:39.493Z,76.41
2018-03-28T05:53:07.627Z,76.67
2018-03-28T05:55:36.739Z,76.73
2018-03-28T05:58:04.866Z,76.68
2018-03-28T06:00:32.983Z,76.46
2018-03-28T06:03:01.114Z,76.24
2018-03-28T06:05:29.205Z,76.24
2018-03-28T06:20:52.328Z,75.20
2018-03-28T06:23:20.443Z,75.13
2018-03-28T06:25:48.536Z,75.08
2018-03-28T06:28:16.802Z,75.13
2018-03-28T06:30:45.657Z,75.19
2018-03-28T06:33:13.751Z,74.84
2018-03-28T06:35:41.909Z,74.99
2018-03-28T06:38:10.009Z,74.54
2018-03-28T06:40:38.119Z,74.45
2018-03-28T06:43:06.274Z,74.48
2018-03-28T06:45:35.517Z,74.58
2018-03-28T06:48:03.607Z,74.49
2018-03-28T06:50:31.792Z,74.40
2018-03-28T06:53:00.167Z,74.48
2018-03-28T06:55:28.290Z,74.23
2018-03-28T06:57:56.434Z,74.34
2018-03-28T07:00:25.597Z,74.14
2018-03-28T07:02:53.697Z,74.33
2018-03-28T07:05:21.810Z,74.39
2018-03-28T07:07:49.922Z,74.34
2018-03-28T07:10:18.030Z,74.00
2018-03-28T07:12:46.182Z,73.93
2018-03-28T07:15:14.592Z,73.81
2018-03-28T07:17:42.859Z,74.16
2018-03-28T07:20:10.991Z,73.96
2018-03-28T07:22:39.919Z,73.95
2018-03-28T07:25:08.823Z,73.82
2018-03-28T07:27:36.939Z,73.41
2018-03-28T07:30:05.206Z,73.14
2018-03-28T07:32:34.336Z,73.21
2018-03-28T07:35:02.688Z,73.31
2018-03-28T07:37:31.656Z,73.06
2018-03-28T07:39:59.777Z,73.45
2018-03-28T07:55:22.968Z,77.85
2018-03-28T07:57:51.061Z,78.09
2018-03-28T08:00:20.046Z,78.18
2018-03-28T08:02:48.895Z,78.31
2018-03-28T08:05:16.998Z,78.40
2018-03-28T08:07:45.103Z,78.55
2018-03-28T08:10:13.226Z,78.68
2018-03-28T08:12:41.330Z,78.61
2018-03-28T08:15:09.430Z,78.75
2018-03-28T08:17:38.327Z,78.82
2018-03-28T08:20:06.422Z,78.77
2018-03-28T08:22:34.525Z,78.86
2018-03-28T08:25:02.629Z,79.22
2018-03-28T08:27:30.740Z,79.08
2018-03-28T08:29:58.840Z,79.03
2018-03-28T08:32:27.770Z,79.15
2018-03-28T08:34:55.908Z,79.43
2018-03-28T08:37:23.996Z,79.56
2018-03-28T08:39:52.107Z,79.61
2018-03-28T08:42:20.529Z,79.96
2018-03-28T08:44:48.607Z,79.93
2018-03-28T08:47:17.122Z,80.09
2018-03-28T08:49:45.610Z,80.47
2018-03-28T08:52:13.755Z,80.72
2018-03-28T08:54:41.837Z,80.67
2018-03-28T08:57:09.936Z,80.66
2018-03-28T08:59:38.046Z,80.55
2018-03-28T09:02:06.268Z,80.55
2018-03-28T09:04:34.344Z,80.67
2018-03-28T09:07:02.436Z,80.45
2018-03-28T09:09:30.570Z,80.57
2018-03-28T09:11:58.659Z,80.69
2018-03-28T09:14:27.077Z,80.69
2018-03-28T09:16:55.442Z,80.85
2018-03-28T09:19:23.532Z,80.92
2018-03-28T09:21:51.702Z,81.18
2018-03-28T09:24:19.823Z,81.00
2018-03-28T09:26:47.931Z,80.81
2018-03-28T09:29:16.088Z,81.07
2018-03-28T09:31:44.212Z,81.21
2018-03-28T09:34:12.336Z,81.19
2018-03-28T09:36:40.452Z,81.13
2018-03-28T09:39:09.368Z,81.15
2018-03-28T09:41:37.466Z,81.07
2018-03-28T09:57:00.738Z,81.93
2018-03-28T09:59:28.845Z,81.43
2018-03-28T10:01:58.910Z,81.46
2018-03-28T10:04:27.760Z,81.80
2018-03-28T10:06:55.869Z,81.68
2018-03-28T10:09:23.970Z,81.75
2018-03-28T10:11:52.719Z,81.44
2018-03-28T10:14:20.817Z,81.12
2018-03-28T10:16:49.160Z,81.04
2018-03-28T10:19:17.736Z,80.80
2018-03-28T10:21:45.852Z,80.59
2018-03-28T10:37:08.985Z,81.02
2018-03-28T10:39:38.269Z,80.21
2018-03-28T10:42:06.670Z,80.09
2018-03-28T10:44:34.790Z,80.31
2018-03-28T10:47:02.890Z,80.45
2018-03-28T10:49:30.985Z,79.98
2018-03-28T10:51:59.118Z,79.68
2018-03-28T10:54:27.260Z,79.22
2018-03-28T10:56:55.346Z,79.27
2018-03-28T10:59:23.730Z,78.78
2018-03-28T11:01:52.600Z,77.56
2018-03-28T11:04:20.711Z,78.34
2018-03-28T11:06:48.809Z,78.36
2018-03-28T11:09:16.983Z,78.65
2018-03-28T11:11:45.682Z,78.78
2018-03-28T11:14:13.787Z,79.19
2018-03-28T11:16:41.896Z,79.22
2018-03-28T11:19:10.014Z,78.86
2018-03-28T11:21:38.415Z,78.94
2018-03-28T11:24:06.534Z,78.44
2018-03-28T11:26:34.655Z,78.10
2018-03-28T11:29:02.746Z,78.15
2018-03-28T11:31:30.921Z,77.55
2018-03-28T11:33:58.994Z,78.01
2018-03-28T11:36:27.463Z,77.86
2018-03-28T11:38:55.630Z,77.35
2018-03-28T11:41:23.781Z,77.48
2018-03-28T11:43:51.822Z,77.71
2018-03-28T11:46:19.941Z,78.33
2018-03-28T11:48:48.048Z,78.92
2018-03-28T11:51:17.086Z,79.39
2018-03-28T11:53:51.013Z,79.89
2018-03-28T11:56:19.173Z,80.14
2018-03-28T11:58:47.282Z,80.46
2018-03-28T12:01:15.395Z,80.72
2018-03-28T12:03:44.342Z,81.00
2018-03-28T12:06:13.188Z,80.59
2018-03-28T12:08:41.309Z,80.43
2018-03-28T12:11:09.402Z,80.23
2018-03-28T12:13:38.208Z,76.96
2018-03-28T12:16:06.284Z,77.37
2018-03-28T12:18:34.375Z,78.70
2018-03-28T12:21:03.162Z,78.97
2018-03-28T12:23:31.760Z,78.94
2018-03-28T12:25:59.867Z,78.70
2018-03-28T12:28:28.763Z,79.27
2018-03-28T12:30:56.855Z,79.76
2018-03-28T12:33:24.945Z,78.66
2018-03-28T12:35:53.047Z,78.25
2018-03-28T12:38:21.128Z,76.72
2018-03-28T12:40:49.227Z,76.44
2018-03-28T12:43:18.560Z,76.72
2018-03-28T12:45:46.698Z,76.43
2018-03-28T12:48:14.793Z,76.95
2018-03-28T12:50:42.900Z,78.32
2018-03-28T12:53:12.000Z,78.87
2018-03-28T12:55:40.292Z,78.81
2018-03-28T12:58:10.386Z,78.76
2018-03-28T13:00:38.478Z,77.70
2018-03-28T13:03:07.708Z,76.87
2018-03-28T13:05:35.787Z,76.86
2018-03-28T13:08:04.944Z,75.98
2018-03-28T13:10:33.003Z,75.67
2018-03-28T13:13:01.086Z,76.19
2018-03-28T13:15:29.249Z,76.45
2018-03-28T13:17:58.155Z,76.53
2018-03-28T13:20:26.588Z,76.10
2018-03-28T13:22:54.693Z,75.92
2018-03-28T13:25:23.547Z,76.09
2018-03-28T13:27:51.694Z,76.79
2018-03-28T13:30:19.818Z,76.55
2018-03-28T13:32:47.969Z,77.06
2018-03-28T13:35:16.043Z,75.61
2018-03-28T13:37:44.617Z,75.84
2018-03-28T13:40:12.748Z,75.28
2018-03-28T13:42:41.591Z,73.98
2018-03-28T13:45:09.906Z,74.32
2018-03-28T13:47:37.983Z,74.40
2018-03-28T13:50:06.072Z,74.77
2018-03-28T13:52:34.204Z,74.12
2018-03-28T13:55:02.303Z,74.24
2018-03-28T13:57:30.412Z,74.13
2018-03-28T13:59:58.587Z,75.04
2018-03-28T14:02:27.166Z,74.76
2018-03-28T14:04:55.238Z,74.55
2018-03-28T14:07:23.335Z,75.23
2018-03-28T14:09:52.323Z,75.30
2018-03-28T14:12:20.407Z,75.18
2018-03-28T14:14:48.543Z,74.91
2018-03-28T14:17:17.060Z,74.31
2018-03-28T14:19:45.086Z,74.68
2018-03-28T14:22:13.196Z,73.06
2018-03-28T14:24:42.101Z,72.92
2018-03-28T14:27:10.195Z,73.69
2018-03-28T14:29:38.308Z,74.45
2018-03-28T14:32:06.385Z,74.56
2018-03-28T14:34:35.488Z,73.25
2018-03-28T14:37:03.952Z,73.45
2018-03-28T14:39:34.237Z,74.01
2018-03-28T14:42:02.340Z,74.01
2018-03-28T14:44:30.454Z,74.20
2018-03-28T14:46:59.139Z,74.57
2018-03-28T14:49:27.252Z,75.21
2018-03-28T14:51:55.436Z,75.83
2018-03-28T14:54:23.913Z,76.14
2018-03-28T14:56:52.014Z,76.83
2018-03-28T14:59:20.147Z,76.78
2018-03-28T15:01:48.231Z,77.10
2018-03-28T15:04:16.603Z,77.87
2018-03-28T15:06:44.679Z,77.92
2018-03-28T15:09:12.760Z,78.64
2018-03-28T15:11:40.975Z,78.94
2018-03-28T15:14:09.071Z,78.93
2018-03-28T15:16:37.177Z,79.89
2018-03-28T15:19:05.495Z,79.80
2018-03-28T15:21:34.597Z,80.01
2018-03-28T15:24:02.678Z,80.24
2018-03-28T15:26:31.401Z,80.55
2018-03-28T15:29:00.070Z,80.73
2018-03-28T15:31:28.146Z,81.17
2018-03-28T15:33:56.254Z,81.41
2018-03-28T15:36:24.336Z,81.05
2018-03-28T15:38:52.424Z,80.81
2018-03-28T15:41:20.523Z,80.67
2018-03-28T15:43:48.619Z,80.99
2018-03-28T15:46:16.717Z,81.54
2018-03-28T15:48:44.842Z,81.70
2018-03-28T15:51:13.185Z,81.85
2018-03-28T15:53:41.272Z,81.35
2018-03-28T15:56:09.364Z,80.96
2018-03-28T15:58:37.447Z,81.16
2018-03-28T16:01:05.547Z,81.02
2018-03-28T16:03:33.643Z,80.45
2018-03-28T16:06:01.830Z,81.38
2018-03-28T16:08:29.914Z,81.26
2018-03-28T16:10:58.756Z,80.94
2018-03-28T16:13:26.899Z,80.75
2018-03-28T16:15:54.979Z,80.54
2018-03-28T16:18:23.109Z,81.02
2018-03-28T16:20:51.490Z,80.77
2018-03-28T16:23:19.632Z,80.11
2018-03-28T16:25:47.720Z,79.90
2018-03-28T16:28:15.809Z,79.50
2018-03-28T16:30:44.959Z,79.47
2018-03-28T16:33:13.059Z,79.49
2018-03-28T16:35:41.134Z,79.67
2018-03-28T16:38:09.289Z,79.25
2018-03-28T16:40:37.384Z,79.36
2018-03-28T16:43:05.455Z,78.39
2018-03-28T16:45:33.633Z,76.87
2018-03-28T16:48:02.495Z,77.02
2018-03-28T16:50:30.593Z,76.35
2018-03-28T16:53:00.026Z,76.40
2018-03-28T16:55:28.111Z,75.66
2018-03-28T16:57:56.193Z,76.18
2018-03-28T17:00:24.299Z,75.91
2018-03-28T17:02:52.386Z,75.66
2018-03-28T17:05:20.457Z,76.07
2018-03-28T17:07:48.598Z,76.84
2018-03-28T17:10:16.658Z,76.22
2018-03-28T17:12:44.718Z,76.21
2018-03-28T17:15:12.809Z,76.67
2018-03-28T17:17:40.900Z,76.37
2018-03-28T17:20:08.981Z,77.11
2018-03-28T17:22:37.073Z,76.53
2018-03-28T17:37:56.084Z,77.01
2018-03-28T17:40:24.488Z,77.12
2018-03-28T17:42:52.554Z,77.09
2018-03-28T17:45:20.668Z,76.82
2018-03-28T17:47:48.754Z,76.69
2018-03-28T17:50:16.842Z,76.37
2018-03-28T17:52:44.937Z,76.93
2018-03-28T17:55:13.957Z,76.77
2018-03-28T17:57:42.048Z,77.11
2018-03-28T18:00:10.150Z,77.37
2018-03-28T18:02:39.223Z,77.33
2018-03-28T18:05:07.338Z,77.33
2018-03-28T18:07:35.836Z,77.28
2018-03-28T18:10:03.909Z,77.34
2018-03-28T18:12:32.027Z,77.15
2018-03-28T18:15:00.179Z,77.35
2018-03-28T18:17:28.303Z,77.49
2018-03-28T18:19:59.160Z,77.20
2018-03-28T18:22:28.875Z,77.12
2018-03-28T18:24:56.994Z,77.70
2018-03-28T18:27:25.362Z,77.53
2018-03-28T18:29:53.451Z,77.37
2018-03-28T18:32:21.671Z,77.84
2018-03-28T18:34:49.771Z,77.52
2018-03-28T18:37:18.816Z,78.10
2018-03-28T18:39:46.906Z,77.97
2018-03-28T18:42:15.007Z,77.96
2018-03-28T18:44:43.107Z,77.75
2018-03-28T18:47:11.265Z,77.75
2018-03-28T18:49:39.346Z,78.01
2018-03-28T18:52:07.819Z,78.42
2018-03-28T18:54:35.914Z,78.60
2018-03-28T18:57:04.026Z,78.67
2018-03-28T18:59:33.012Z,78.89
2018-03-28T19:02:01.110Z,79.14
2018-03-28T19:04:29.206Z,79.06
2018-03-28T19:06:57.508Z,78.86
2018-03-28T19:09:25.597Z,78.82
2018-03-28T19:11:53.670Z,78.61
2018-03-28T19:14:21.779Z,78.86
2018-03-28T19:16:49.869Z,78.60
2018-03-28T19:19:17.968Z,78.50
2018-03-28T19:21:46.376Z,78.58
2018-03-28T19:24:14.486Z,78.07
2018-03-28T19:26:42.580Z,77.93
2018-03-28T19:29:10.713Z,77.86
2018-03-28T19:31:39.011Z,77.93
2018-03-28T19:34:07.082Z,77.98
2018-03-28T19:36:35.534Z,77.81
2018-03-28T19:39:03.623Z,78.12
2018-03-28T19:41:32.187Z,77.45
2018-03-28T19:44:01.163Z,77.38
2018-03-28T19:46:29.353Z,77.29
2018-03-28T20:05:02.930Z,76.76
2018-03-28T20:17:11.022Z,76.69
2018-03-28T20:19:39.113Z,76.40
2018-03-28T20:22:07.195Z,76.03
2018-03-28T20:24:35.312Z,76.00
2018-03-28T20:27:03.412Z,75.42
2018-03-28T20:29:31.485Z,75.39
2018-03-28T20:31:59.604Z,74.99
2018-03-28T20:34:28.162Z,74.76
2018-03-28T20:36:57.013Z,74.52
2018-03-28T20:39:26.010Z,74.39
2018-03-28T20:41:54.251Z,74.82
2018-03-28T20:44:22.448Z,75.31
2018-03-28T20:46:50.555Z,74.79
2018-03-28T20:49:18.695Z,74.37
2018-03-28T20:51:46.794Z,74.93
2018-03-28T21:03:54.899Z,75.19
2018-03-28T21:06:23.478Z,75.21
2018-03-28T21:08:51.558Z,75.26
2018-03-28T21:11:19.685Z,75.34
2018-03-28T21:13:47.766Z,75.52
2018-03-28T21:16:15.864Z,75.54
2018-03-28T21:18:44.604Z,75.94
2018-03-28T21:21:12.774Z,75.26
2018-03-28T21:23:41.028Z,75.35
2018-03-28T21:26:09.944Z,75.37
2018-03-28T21:41:28.237Z,75.05
2018-03-28T21:43:56.319Z,75.07
2018-03-28T21:46:24.445Z,74.73
2018-03-28T21:48:52.586Z,74.76
2018-03-28T21:51:20.671Z,74.67
2018-03-28T21:53:48.918Z,74.84
2018-03-28T21:56:17.284Z,74.97
2018-03-28T21:58:45.446Z,74.32
2018-03-28T22:01:13.571Z,74.11
2018-03-28T22:03:41.697Z,73.62
2018-03-28T22:06:09.787Z,73.55
2018-03-28T22:08:38.019Z,74.12
2018-03-28T22:11:06.115Z,73.69
2018-03-28T22:13:34.231Z,73.76
2018-03-28T22:16:02.330Z,73.71
2018-03-28T22:18:30.418Z,73.41
2018-03-28T22:20:58.510Z,73.55
2018-03-28T22:36:21.657Z,73.98
2018-03-28T22:38:49.752Z,74.36
2018-03-28T22:41:17.918Z,73.78
2018-03-28T22:43:46.014Z,73.51
2018-03-28T22:46:14.426Z,73.54
2018-03-28T22:48:42.524Z,73.66
2018-03-28T22:51:11.383Z,73.72
2018-03-28T22:53:39.466Z,73.69
2018-03-28T22:56:07.926Z,73.57
2018-03-28T22:58:36.056Z,73.23
2018-03-28T23:01:04.146Z,73.32
2018-03-28T23:03:32.225Z,73.19
2018-03-28T23:06:00.414Z,73.21
2018-03-28T23:08:28.764Z,73.46
2018-03-28T23:10:56.864Z,73.63
2018-03-28T23:13:24.951Z,73.59
2018-03-28T23:28:44.055Z,73.69
2018-03-28T23:31:12.143Z,73.81
2018-03-28T23:33:40.231Z,73.98
2018-03-28T23:36:08.352Z,74.15
2018-03-28T23:38:36.461Z,74.25
2018-03-28T23:41:04.904Z,74.36
2018-03-28T23:43:33.011Z,74.40
2018-03-28T23:46:07.112Z,74.83
2018-03-28T23:48:35.626Z,74.75
2018-03-28T23:51:03.762Z,74.78
2018-03-28T23:53:31.899Z,74.70
2018-03-28T23:56:00.077Z,75.04
2018-03-28T23:58:28.214Z,75.42
